Amherst, Texas
Current Conditions -  °F | °C
As of 12:55 AM on Saturday 20 Dec 2014 (Local Time) from KPVW Reporting Station
Overcast Overcast  
Wind Chill: 35°   Ceiling: 1200
Heat Index: 40°   Visibility: 7mi
Dew Point: 38°   Wind: 7mph
Humidity: 94%   Direction: 200°SSW
Pressure: 30.14"   Gusts: NA
Location:  34.01°N, 102.42°W
Report Text: KPVW 200655Z AUTO 20006KT 7SM OVC012 04/03 A3014 RMK AO2 T00420033
Loading
Personal Weather Stations






























Interactive Weather Map New forecast layout! Learn more

10-Day Weather Forecast

Advertisements
Track Severe Weather on mobile